createdAt,value
2018-03-14T00:02:06.739Z,100834.91
2018-03-14T00:04:32.943Z,100837.51
2018-03-14T00:06:59.504Z,100838.86
2018-03-14T00:09:25.753Z,100839.70
2018-03-14T00:11:52.364Z,100837.54
2018-03-14T00:14:18.796Z,100838.96
2018-03-14T00:16:45.331Z,100838.16
2018-03-14T00:19:11.876Z,100839.43
2018-03-14T00:21:38.067Z,100847.31
2018-03-14T00:24:04.528Z,100852.16
2018-03-14T00:26:30.757Z,100857.84
2018-03-14T00:28:56.976Z,100855.69
2018-03-14T00:31:23.234Z,100857.00
2018-03-14T00:33:49.658Z,100859.66
2018-03-14T00:36:15.839Z,100860.54
2018-03-14T00:38:42.098Z,100857.08
2018-03-14T00:41:08.291Z,100864.52
2018-03-14T00:43:34.464Z,100864.17
2018-03-14T00:46:00.724Z,100867.74
2018-03-14T00:48:26.917Z,100871.20
2018-03-14T00:50:53.453Z,100872.89
2018-03-14T00:53:19.702Z,100873.33
2018-03-14T00:55:46.216Z,100875.92
2018-03-14T00:58:12.642Z,100878.95
2018-03-14T01:00:39.106Z,100881.61
2018-03-14T01:03:05.325Z,100886.86
2018-03-14T01:05:31.738Z,100884.23
2018-03-14T01:07:57.956Z,100884.23
2018-03-14T01:10:24.140Z,100883.83
2018-03-14T01:12:50.332Z,100882.08
2018-03-14T01:15:16.855Z,100886.95
2018-03-14T01:17:43.034Z,100891.73
2018-03-14T01:20:09.365Z,100891.30
2018-03-14T01:22:35.561Z,100886.52
2018-03-14T01:25:01.794Z,100890.05
2018-03-14T01:27:27.998Z,100889.62
2018-03-14T01:29:54.199Z,100893.48
2018-03-14T01:32:20.417Z,100894.80
2018-03-14T01:34:46.598Z,100894.80
2018-03-14T01:37:12.800Z,100896.14
2018-03-14T01:39:39.238Z,100897.46
2018-03-14T01:42:05.778Z,100892.24
2018-03-14T01:44:31.944Z,100893.66
2018-03-14T01:46:58.108Z,100898.50
2018-03-14T01:49:24.337Z,100899.41
2018-03-14T01:51:50.522Z,100896.84
2018-03-14T01:54:17.019Z,100906.00
2018-03-14T01:56:43.199Z,100915.13
2018-03-14T01:59:09.380Z,100909.94
2018-03-14T02:01:35.907Z,100916.09
2018-03-14T02:04:02.098Z,100918.25
2018-03-14T02:06:28.566Z,100924.41
2018-03-14T02:08:54.749Z,100918.72
2018-03-14T02:11:21.009Z,100920.03
2018-03-14T02:13:47.186Z,100920.06
2018-03-14T02:16:13.370Z,100926.59
2018-03-14T02:18:39.576Z,100924.34
2018-03-14T02:21:05.808Z,100923.88
2018-03-14T02:23:32.004Z,100929.97
2018-03-14T02:25:58.208Z,100931.34
2018-03-14T02:28:24.447Z,100933.50
2018-03-14T02:30:50.655Z,100936.55
2018-03-14T02:33:17.180Z,100938.75
2018-03-14T02:35:43.420Z,100942.25
2018-03-14T02:38:09.584Z,100948.77
2018-03-14T02:40:35.756Z,100949.27
2018-03-14T02:43:01.987Z,100949.72
2018-03-14T02:45:28.159Z,100953.59
2018-03-14T02:47:54.655Z,100958.34
2018-03-14T02:50:21.186Z,100964.46
2018-03-14T02:52:47.339Z,100965.74
2018-03-14T02:55:13.513Z,100969.68
2018-03-14T02:57:39.728Z,100975.80
2018-03-14T03:00:05.888Z,100975.84
2018-03-14T03:02:32.040Z,100978.46
2018-03-14T03:04:58.239Z,100981.05
2018-03-14T03:07:24.403Z,100982.84
2018-03-14T03:09:50.915Z,100990.24
2018-03-14T03:12:17.086Z,100986.78
2018-03-14T03:14:43.234Z,100987.24
2018-03-14T03:17:09.420Z,100986.40
2018-03-14T03:19:35.614Z,100994.27
2018-03-14T03:22:01.830Z,100999.52
2018-03-14T03:24:34.321Z,100993.80
2018-03-14T03:27:00.756Z,101005.21
2018-03-14T03:29:26.972Z,101008.77
2018-03-14T03:31:53.130Z,101004.36
2018-03-14T03:34:19.540Z,101013.61
2018-03-14T03:36:45.739Z,101011.86
2018-03-14T03:39:11.903Z,101017.05
2018-03-14T03:41:38.063Z,101024.05
2018-03-14T03:44:04.263Z,101029.77
2018-03-14T03:46:30.460Z,101026.30
2018-03-14T03:48:56.674Z,101021.95
2018-03-14T03:51:22.843Z,101025.02
2018-03-14T03:53:49.000Z,101029.39
2018-03-14T03:56:15.183Z,101030.27
2018-03-14T03:58:41.401Z,101024.58
2018-03-14T04:01:07.578Z,101024.55
2018-03-14T04:03:33.739Z,101028.08
2018-03-14T04:05:59.933Z,101032.05
2018-03-14T04:08:26.089Z,101034.20
2018-03-14T04:10:52.301Z,101039.86
2018-03-14T04:13:18.459Z,101045.48
2018-03-14T04:15:44.907Z,101041.98
2018-03-14T04:18:11.124Z,101047.70
2018-03-14T04:20:37.295Z,101044.61
2018-03-14T04:23:03.551Z,101045.52
2018-03-14T04:25:29.744Z,101051.99
2018-03-14T04:27:55.923Z,101048.11
2018-03-14T04:30:22.129Z,101044.27
2018-03-14T04:32:48.345Z,101050.80
2018-03-14T04:35:14.519Z,101050.30
2018-03-14T04:37:40.960Z,101052.58
2018-03-14T04:40:13.138Z,101052.57
2018-03-14T04:42:39.296Z,101054.77
2018-03-14T04:45:05.479Z,101057.39
2018-03-14T04:47:31.621Z,101057.83
2018-03-14T04:49:58.142Z,101063.05
2018-03-14T04:52:24.347Z,101073.58
2018-03-14T04:54:50.515Z,101073.52
2018-03-14T04:57:16.666Z,101073.98
2018-03-14T04:59:42.855Z,101077.45
2018-03-14T05:02:09.021Z,101074.02
2018-03-14T05:04:35.513Z,101077.51
2018-03-14T05:07:01.659Z,101079.73
2018-03-14T05:09:27.808Z,101080.14
2018-03-14T05:11:54.025Z,101088.03
2018-03-14T05:14:20.269Z,101089.78
2018-03-14T05:16:46.438Z,101099.00
2018-03-14T05:19:12.607Z,101096.34
2018-03-14T05:21:39.108Z,101087.58
2018-03-14T05:24:05.300Z,101099.77
2018-03-14T05:26:31.490Z,101104.64
2018-03-14T05:28:57.889Z,101106.38
2018-03-14T05:31:24.112Z,101106.77
2018-03-14T05:33:50.281Z,101105.84
2018-03-14T05:36:16.455Z,101107.99
2018-03-14T05:38:42.636Z,101107.06
2018-03-14T05:41:08.848Z,101108.81
2018-03-14T05:43:35.024Z,101110.16
2018-03-14T05:46:01.266Z,101113.71
2018-03-14T05:48:27.531Z,101122.02
2018-03-14T05:50:53.702Z,101116.80
2018-03-14T05:53:19.888Z,101119.05
2018-03-14T05:55:46.058Z,101124.75
2018-03-14T05:58:12.290Z,101124.40
2018-03-14T06:00:38.494Z,101135.28
2018-03-14T06:03:04.662Z,101137.47
2018-03-14T06:05:30.838Z,101139.27
2018-03-14T06:07:57.031Z,101140.17
2018-03-14T06:10:23.188Z,101140.61
2018-03-14T06:12:49.334Z,101147.69
2018-03-14T06:15:15.511Z,101154.69
2018-03-14T06:17:41.942Z,101151.63
2018-03-14T06:20:08.117Z,101155.95
2018-03-14T06:22:34.311Z,101155.56
2018-03-14T06:25:00.468Z,101155.17
2018-03-14T06:27:26.678Z,101163.59
2018-03-14T06:29:52.876Z,101162.72
2018-03-14T06:32:19.052Z,101160.81
2018-03-14T06:34:45.546Z,101162.91
2018-03-14T06:37:11.787Z,101168.12
2018-03-14T06:39:37.920Z,101175.48
2018-03-14T06:42:04.104Z,101187.98
2018-03-14T06:44:30.276Z,101185.66
2018-03-14T06:46:56.447Z,101190.47
2018-03-14T06:49:22.664Z,101188.66
2018-03-14T06:51:48.830Z,101192.05
2018-03-14T06:54:14.979Z,101192.82
2018-03-14T06:56:41.426Z,101196.16
2018-03-14T06:59:19.888Z,101210.37
2018-03-14T07:01:58.262Z,101214.64
2018-03-14T07:04:36.528Z,101207.22
2018-03-14T07:07:02.718Z,101214.31
2018-03-14T07:09:28.871Z,101217.05
2018-03-14T07:11:55.357Z,101212.32
2018-03-14T07:14:21.577Z,101220.70
2018-03-14T07:16:47.746Z,101222.09
2018-03-14T07:19:14.210Z,101231.75
2018-03-14T07:21:40.399Z,101227.83
2018-03-14T07:24:06.587Z,101235.33
2018-03-14T07:26:32.854Z,101229.17
2018-03-14T07:28:59.083Z,101230.05
2018-03-14T07:31:25.226Z,101228.30
2018-03-14T07:33:51.360Z,101240.61
2018-03-14T07:36:17.764Z,101234.51
2018-03-14T07:38:43.957Z,101241.53
2018-03-14T07:41:10.160Z,101246.36
2018-03-14T07:43:36.311Z,101245.03
2018-03-14T07:46:02.532Z,101246.32
2018-03-14T07:48:28.946Z,101247.61
2018-03-14T07:50:55.384Z,101239.68
2018-03-14T07:53:21.570Z,101241.38
2018-03-14T07:55:47.794Z,101240.42
2018-03-14T07:58:13.944Z,101249.15
2018-03-14T08:00:40.391Z,101251.94
2018-03-14T08:03:06.603Z,101250.55
2018-03-14T08:05:32.781Z,101246.58
2018-03-14T08:07:59.281Z,101257.06
2018-03-14T08:10:25.485Z,101251.72
2018-03-14T08:12:51.660Z,101251.25
2018-03-14T08:15:17.828Z,101259.54
2018-03-14T08:17:44.059Z,101255.19
2018-03-14T08:20:10.233Z,101254.81
2018-03-14T08:22:36.429Z,101260.45
2018-03-14T08:25:02.614Z,101271.31
2018-03-14T08:27:28.818Z,101267.72
2018-03-14T08:29:55.093Z,101273.45
2018-03-14T08:32:21.349Z,101275.16
2018-03-14T08:34:47.577Z,101274.67
2018-03-14T08:37:13.801Z,101275.02
2018-03-14T08:39:39.960Z,101281.97
2018-03-14T08:42:06.180Z,101277.63
2018-03-14T08:44:32.353Z,101281.45
2018-03-14T08:46:58.826Z,101284.95
2018-03-14T08:49:25.012Z,101285.91
2018-03-14T08:51:51.490Z,101283.75
2018-03-14T08:54:17.729Z,101289.48
2018-03-14T08:56:44.153Z,101292.11
2018-03-14T08:59:10.325Z,101297.36
2018-03-14T09:01:36.746Z,101283.81
2018-03-14T09:04:02.912Z,101284.19
2018-03-14T09:06:29.180Z,101287.20
2018-03-14T09:08:55.599Z,101285.42
2018-03-14T09:11:21.801Z,101297.22
2018-03-14T09:13:48.261Z,101295.88
2018-03-14T09:16:14.485Z,101295.42
2018-03-14T09:18:40.919Z,101295.83
2018-03-14T09:21:07.080Z,101293.17
2018-03-14T09:23:33.270Z,101297.46
2018-03-14T09:25:59.632Z,101301.87
2018-03-14T09:28:25.881Z,101305.73
2018-03-14T09:30:52.055Z,101304.88
2018-03-14T09:33:18.509Z,101307.92
2018-03-14T09:35:44.727Z,101309.44
2018-03-14T09:38:11.157Z,101309.29
2018-03-14T09:40:37.387Z,101313.02
2018-03-14T09:43:03.555Z,101322.20
2018-03-14T09:45:29.708Z,101322.78
2018-03-14T09:47:55.897Z,101320.09
2018-03-14T09:50:22.078Z,101317.91
2018-03-14T09:52:48.270Z,101321.37
2018-03-14T09:55:14.429Z,101320.12
2018-03-14T09:57:40.635Z,101324.16
2018-03-14T10:00:06.880Z,101326.77
2018-03-14T10:02:33.055Z,101319.25
2018-03-14T10:04:59.255Z,101321.00
2018-03-14T10:07:25.435Z,101322.35
2018-03-14T10:09:51.597Z,101321.03
2018-03-14T10:12:17.915Z,101321.47
2018-03-14T10:14:44.104Z,101322.41
2018-03-14T10:17:10.282Z,101327.72
2018-03-14T10:19:36.483Z,101330.44
2018-03-14T10:22:02.723Z,101337.52
2018-03-14T10:24:28.893Z,101334.03
2018-03-14T10:26:55.054Z,101332.72
2018-03-14T10:29:21.637Z,101338.94
2018-03-14T10:31:47.815Z,101341.05
2018-03-14T10:34:14.022Z,101338.83
2018-03-14T10:36:40.197Z,101344.17
2018-03-14T10:39:06.456Z,101347.68
2018-03-14T10:41:32.615Z,101349.91
2018-03-14T10:43:58.770Z,101342.89
2018-03-14T10:46:24.947Z,101342.45
2018-03-14T10:48:51.155Z,101346.80
2018-03-14T10:51:17.360Z,101343.30
2018-03-14T10:53:43.519Z,101350.31
2018-03-14T10:56:09.757Z,101345.86
2018-03-14T10:58:36.028Z,101341.45
2018-03-14T11:01:08.340Z,101344.94
2018-03-14T11:03:35.697Z,101341.84
2018-03-14T11:06:10.319Z,101342.25
2018-03-14T11:08:36.546Z,101337.38
2018-03-14T11:11:02.694Z,101331.58
2018-03-14T11:13:28.870Z,101333.77
2018-03-14T11:15:55.142Z,101334.65
2018-03-14T11:18:21.313Z,101324.19
2018-03-14T11:23:20.301Z,101330.33
2018-03-14T11:25:46.512Z,101333.83
2018-03-14T11:28:12.867Z,101334.24
2018-03-14T11:30:39.134Z,101339.41
2018-03-14T11:33:05.306Z,101337.31
2018-03-14T11:35:31.487Z,101333.92
2018-03-14T11:37:58.043Z,101335.73
2018-03-14T11:40:24.231Z,101344.58
2018-03-14T11:42:50.397Z,101335.41
2018-03-14T11:45:16.619Z,101341.95
2018-03-14T11:47:42.794Z,101342.89
2018-03-14T11:50:08.955Z,101342.06
2018-03-14T11:52:35.152Z,101340.69
2018-03-14T11:55:01.646Z,101345.87
2018-03-14T11:57:27.881Z,101346.30
2018-03-14T11:59:54.061Z,101347.09
2018-03-14T12:02:20.246Z,101353.34
2018-03-14T12:04:46.533Z,101348.20
2018-03-14T12:07:18.762Z,101349.45
2018-03-14T12:09:45.054Z,101345.98
2018-03-14T12:12:11.208Z,101342.45
2018-03-14T12:14:37.412Z,101337.59
2018-03-14T12:17:03.732Z,101345.45
2018-03-14T12:19:29.918Z,101335.79
2018-03-14T12:21:56.498Z,101335.33
2018-03-14T12:24:22.681Z,101333.48
2018-03-14T12:26:48.879Z,101337.45
2018-03-14T12:29:15.103Z,101332.20
2018-03-14T12:31:41.614Z,101331.73
2018-03-14T12:34:07.794Z,101341.34
2018-03-14T12:36:34.378Z,101342.25
2018-03-14T12:39:00.553Z,101333.92
2018-03-14T12:41:26.730Z,101332.14
2018-03-14T12:43:52.963Z,101332.14
2018-03-14T12:46:19.122Z,101334.73
2018-03-14T12:48:45.622Z,101328.63
2018-03-14T12:51:11.784Z,101325.13
2018-03-14T12:53:38.022Z,101330.38
2018-03-14T12:56:04.195Z,101320.75
2018-03-14T12:58:30.354Z,101324.19
2018-03-14T13:00:56.594Z,101318.47
2018-03-14T13:03:22.770Z,101324.07
2018-03-14T13:05:48.990Z,101328.83
2018-03-14T13:08:15.148Z,101320.48
2018-03-14T13:10:41.330Z,101320.44
2018-03-14T13:13:07.519Z,101322.61
2018-03-14T13:15:34.030Z,101317.28
2018-03-14T13:18:00.433Z,101320.36
2018-03-14T13:20:26.638Z,101315.56
2018-03-14T13:22:52.861Z,101318.19
2018-03-14T13:25:19.353Z,101315.59
2018-03-14T13:27:45.615Z,101314.75
2018-03-14T13:30:11.826Z,101317.34
2018-03-14T13:32:38.027Z,101314.78
2018-03-14T13:35:04.201Z,101313.94
2018-03-14T13:37:30.453Z,101316.56
2018-03-14T13:39:56.610Z,101312.18
2018-03-14T13:42:22.827Z,101303.34
2018-03-14T13:44:48.991Z,101306.85
2018-03-14T13:47:15.198Z,101305.54
2018-03-14T13:49:41.738Z,101310.80
2018-03-14T13:52:07.962Z,101310.39
2018-03-14T13:54:34.136Z,101306.04
2018-03-14T13:57:00.319Z,101303.81
2018-03-14T13:59:26.504Z,101297.24
2018-03-14T14:01:52.731Z,101294.23
2018-03-14T14:04:18.912Z,101295.14
2018-03-14T14:06:45.117Z,101295.61
2018-03-14T14:09:11.346Z,101305.31
2018-03-14T14:11:37.507Z,101296.14
2018-03-14T14:14:03.692Z,101295.30
2018-03-14T14:16:29.868Z,101290.51
2018-03-14T14:18:56.063Z,101287.87
2018-03-14T14:21:22.266Z,101289.62
2018-03-14T14:23:48.446Z,101284.87
2018-03-14T14:26:14.953Z,101289.25
2018-03-14T14:28:41.175Z,101284.05
2018-03-14T14:31:07.462Z,101283.61
2018-03-14T14:33:33.636Z,101289.81
2018-03-14T14:36:00.173Z,101290.28
2018-03-14T14:38:26.709Z,101291.21
2018-03-14T14:40:53.240Z,101289.45
2018-03-14T14:43:19.646Z,101291.65
2018-03-14T14:45:45.827Z,101292.09
2018-03-14T14:48:12.039Z,101295.65
2018-03-14T14:50:38.240Z,101299.13
2018-03-14T14:53:04.450Z,101295.63
2018-03-14T14:55:30.635Z,101296.47
2018-03-14T14:57:57.117Z,101287.73
2018-03-14T15:00:23.293Z,101283.79
2018-03-14T15:02:49.474Z,101283.79
2018-03-14T15:05:15.702Z,101274.59
2018-03-14T15:07:41.887Z,101274.13
2018-03-14T15:10:08.228Z,101272.34
2018-03-14T15:12:34.740Z,101267.43
2018-03-14T15:15:00.943Z,101270.00
2018-03-14T15:17:27.146Z,101273.94
2018-03-14T15:19:53.351Z,101257.78
2018-03-14T15:22:19.551Z,101261.73
2018-03-14T15:24:45.778Z,101260.83
2018-03-14T15:27:12.009Z,101254.69
2018-03-14T15:29:38.158Z,101254.72
2018-03-14T15:32:04.447Z,101254.41
2018-03-14T15:34:30.623Z,101249.27
2018-03-14T15:36:56.783Z,101248.86
2018-03-14T15:39:22.971Z,101252.86
2018-03-14T15:41:49.189Z,101254.17
2018-03-14T15:44:15.368Z,101242.41
2018-03-14T15:46:41.531Z,101241.13
2018-03-14T15:49:07.753Z,101241.59
2018-03-14T15:51:33.957Z,101246.87
2018-03-14T15:54:00.392Z,101240.83
2018-03-14T15:56:26.618Z,101240.42
2018-03-14T15:58:52.795Z,101233.41
2018-03-14T16:01:18.951Z,101234.75
2018-03-14T16:03:52.236Z,101237.88
2018-03-14T16:06:18.402Z,101236.16
2018-03-14T16:08:44.560Z,101234.44
2018-03-14T16:11:10.773Z,101231.81
2018-03-14T16:13:36.950Z,101232.66
2018-03-14T16:16:03.122Z,101234.84
2018-03-14T16:18:29.639Z,101229.16
2018-03-14T16:20:55.818Z,101236.59
2018-03-14T16:23:22.049Z,101237.50
2018-03-14T16:25:48.208Z,101230.50
2018-03-14T16:28:14.394Z,101230.95
2018-03-14T16:30:40.598Z,101228.39
2018-03-14T16:33:07.109Z,101225.30
2018-03-14T16:35:33.272Z,101219.20
2018-03-14T16:37:59.484Z,101217.47
2018-03-14T16:40:25.631Z,101217.91
2018-03-14T16:42:52.143Z,101214.41
2018-03-14T16:45:18.335Z,101208.74
2018-03-14T16:47:44.507Z,101216.25
2018-03-14T16:50:10.758Z,101214.98
2018-03-14T16:52:36.990Z,101211.05
2018-03-14T16:55:03.169Z,101208.86
2018-03-14T16:57:29.342Z,101207.61
2018-03-14T16:59:55.567Z,101209.36
2018-03-14T17:02:21.746Z,101213.70
2018-03-14T17:04:47.945Z,101214.98
2018-03-14T17:07:14.152Z,101218.11
2018-03-14T17:09:40.335Z,101214.61
2018-03-14T17:12:06.758Z,101218.96
2018-03-14T17:14:32.993Z,101218.48
2018-03-14T17:16:59.440Z,101216.73
2018-03-14T17:19:25.674Z,101217.23
2018-03-14T17:21:51.858Z,101216.77
2018-03-14T17:24:18.031Z,101218.52
2018-03-14T17:26:44.539Z,101219.39
2018-03-14T17:29:10.973Z,101224.63
2018-03-14T17:31:37.172Z,101229.50
2018-03-14T17:34:03.362Z,101233.00
2018-03-14T17:36:29.519Z,101235.19
2018-03-14T17:38:55.720Z,101231.74
2018-03-14T17:41:21.894Z,101223.42
2018-03-14T17:43:48.109Z,101228.70
2018-03-14T17:46:14.332Z,101226.98
2018-03-14T17:48:40.502Z,101225.75
2018-03-14T17:51:06.674Z,101221.38
2018-03-14T17:53:32.856Z,101218.75
2018-03-14T17:55:59.070Z,101224.06
2018-03-14T17:58:25.237Z,101223.59
2018-03-14T18:00:51.394Z,101220.97
2018-03-14T18:03:17.858Z,101220.50
2018-03-14T18:05:44.024Z,101209.58
2018-03-14T18:08:10.210Z,101212.64
2018-03-14T18:10:36.640Z,101213.49
2018-03-14T18:13:02.836Z,101213.09
2018-03-14T18:15:28.998Z,101215.24
2018-03-14T18:17:55.220Z,101212.65
2018-03-14T18:20:21.375Z,101208.33
2018-03-14T18:22:47.543Z,101209.64
2018-03-14T18:25:13.733Z,101211.83
2018-03-14T18:27:39.904Z,101215.33
2018-03-14T18:30:06.112Z,101214.95
2018-03-14T18:32:32.591Z,101207.02
2018-03-14T18:34:58.848Z,101205.70
2018-03-14T18:37:25.070Z,101212.35
2018-03-14T18:39:51.478Z,101221.08
2018-03-14T18:42:17.680Z,101217.14
2018-03-14T18:44:43.834Z,101215.73
2018-03-14T18:47:09.997Z,101216.20
2018-03-14T18:49:36.495Z,101212.27
2018-03-14T18:52:02.671Z,101218.42
2018-03-14T18:54:28.862Z,101213.61
2018-03-14T18:56:55.040Z,101221.08
2018-03-14T18:59:21.250Z,101220.64
2018-03-14T19:01:47.416Z,101222.83
2018-03-14T19:04:13.580Z,101216.32
2018-03-14T19:06:39.774Z,101216.78
2018-03-14T19:09:05.991Z,101218.09
2018-03-14T19:11:32.148Z,101215.96
2018-03-14T19:13:58.315Z,101212.84
2018-03-14T19:16:24.556Z,101214.92
2018-03-14T19:18:51.034Z,101213.98
2018-03-14T19:21:17.573Z,101219.63
2018-03-14T19:23:43.994Z,101216.09
2018-03-14T19:26:10.216Z,101216.50
2018-03-14T19:28:36.474Z,101220.06
2018-03-14T19:31:02.672Z,101217.44
2018-03-14T19:33:29.014Z,101218.75
2018-03-14T19:35:55.299Z,101217.90
2018-03-14T19:38:21.512Z,101211.86
2018-03-14T19:40:47.685Z,101225.45
2018-03-14T19:43:13.934Z,101221.11
2018-03-14T19:45:40.096Z,101216.29
2018-03-14T19:48:06.273Z,101222.42
2018-03-14T19:50:32.725Z,101216.26
2018-03-14T19:52:58.883Z,101223.18
2018-03-14T19:55:25.126Z,101223.56
2018-03-14T19:57:51.367Z,101217.79
2018-03-14T20:00:17.527Z,101214.29
2018-03-14T20:02:44.058Z,101220.88
2018-03-14T20:05:10.245Z,101224.30
2018-03-14T20:07:36.414Z,101226.00
2018-03-14T20:10:02.622Z,101221.15
2018-03-14T20:12:28.793Z,101220.30
2018-03-14T20:14:54.999Z,101218.11
2018-03-14T20:17:21.163Z,101215.52
2018-03-14T20:19:47.655Z,101213.80
2018-03-14T20:22:13.844Z,101209.88
2018-03-14T20:24:39.996Z,101217.32
2018-03-14T20:27:06.201Z,101214.64
2018-03-14T20:29:32.402Z,101215.95
2018-03-14T20:31:58.556Z,101211.16
2018-03-14T20:34:24.715Z,101212.42
2018-03-14T20:36:50.947Z,101212.91
2018-03-14T20:39:17.108Z,101211.57
2018-03-14T20:41:43.285Z,101212.04
2018-03-14T20:44:09.484Z,101206.34
2018-03-14T20:46:35.667Z,101204.19
2018-03-14T20:49:01.857Z,101203.31
2018-03-14T20:51:28.192Z,101199.72
2018-03-14T20:53:54.646Z,101201.00
2018-03-14T20:56:20.828Z,101201.47
2018-03-14T20:58:47.016Z,101205.44
2018-03-14T21:01:13.415Z,101205.47
2018-03-14T21:03:39.604Z,101205.06
2018-03-14T21:06:05.777Z,101201.50
2018-03-14T21:08:31.971Z,101191.43
2018-03-14T21:10:58.119Z,101188.37
2018-03-14T21:13:24.318Z,101186.20
2018-03-14T21:15:50.802Z,101183.14
2018-03-14T21:18:17.233Z,101176.60
2018-03-14T21:20:43.779Z,101180.11
2018-03-14T21:23:09.962Z,101176.16
2018-03-14T21:25:36.209Z,101169.63
2018-03-14T21:28:02.398Z,101169.16
2018-03-14T21:30:28.561Z,101168.72
2018-03-14T21:32:54.725Z,101165.25
2018-03-14T21:35:20.947Z,101168.31
2018-03-14T21:37:47.143Z,101169.69
2018-03-14T21:40:13.297Z,101161.40
2018-03-14T21:42:39.485Z,101150.05
2018-03-14T21:45:05.653Z,101154.39
2018-03-14T21:47:31.858Z,101159.20
2018-03-14T21:49:58.047Z,101154.42
2018-03-14T21:52:24.550Z,101157.08
2018-03-14T21:54:51.062Z,101154.39
2018-03-14T21:57:18.243Z,101155.73
2018-03-14T21:59:44.413Z,101152.67
2018-03-14T22:02:10.621Z,101146.13
2018-03-14T22:04:36.878Z,101154.92
2018-03-14T22:07:03.047Z,101140.00
2018-03-14T22:09:29.201Z,101144.36
2018-03-14T22:11:55.385Z,101138.66
2018-03-14T22:14:21.567Z,101134.31
2018-03-14T22:16:47.752Z,101133.84
2018-03-14T22:19:13.907Z,101128.13
2018-03-14T22:21:40.105Z,101123.78
2018-03-14T22:26:39.164Z,101118.44
2018-03-14T22:29:05.340Z,101121.03
2018-03-14T22:31:31.544Z,101117.09
2018-03-14T22:33:57.687Z,101116.59
2018-03-14T22:36:23.926Z,101115.28
2018-03-14T22:38:50.128Z,101119.66
2018-03-14T22:41:16.311Z,101124.00
2018-03-14T22:43:42.474Z,101122.38
2018-03-14T22:46:09.023Z,101119.72
2018-03-14T22:48:35.222Z,101114.84
2018-03-14T22:51:01.397Z,101111.77
2018-03-14T22:53:27.916Z,101119.75
2018-03-14T22:55:54.095Z,101118.03
2018-03-14T22:58:20.265Z,101117.68
2018-03-14T23:00:46.806Z,101121.21
2018-03-14T23:03:12.974Z,101121.64
2018-03-14T23:05:39.461Z,101126.41
2018-03-14T23:08:05.633Z,101127.72
2018-03-14T23:10:31.784Z,101118.53
2018-03-14T23:12:57.970Z,101114.93
2018-03-14T23:15:24.136Z,101108.80
2018-03-14T23:17:50.603Z,101106.70
2018-03-14T23:20:16.751Z,101108.89
2018-03-14T23:22:42.957Z,101111.92
2018-03-14T23:25:09.126Z,101102.70
2018-03-14T23:27:35.337Z,101101.36
2018-03-14T23:30:01.530Z,101106.14
2018-03-14T23:32:27.693Z,101101.61
2018-03-14T23:34:53.928Z,101101.67
2018-03-14T23:37:20.362Z,101099.92
2018-03-14T23:39:46.574Z,101095.61
2018-03-14T23:42:12.803Z,101099.11
2018-03-14T23:44:38.978Z,101095.98
2018-03-14T23:47:05.169Z,101092.07
2018-03-14T23:49:31.389Z,101090.76
2018-03-14T23:51:57.551Z,101084.66
2018-03-14T23:54:23.718Z,101092.63
2018-03-14T23:56:49.942Z,101087.87
2018-03-14T23:59:16.114Z,101094.04
